sensor_id;sensor_type;location;lat;lon;timestamp;P1;durP1;ratioP1;P2;durP2;ratioP2
19191;SDS011;9728;48.194;16.346;2022-07-25T00:01:35;3.00;;;2.70;;
19191;SDS011;9728;48.194;16.346;2022-07-25T00:06:38;2.75;;;2.45;;
19191;SDS011;9728;48.194;16.346;2022-07-25T00:11:42;3.50;;;2.53;;
19191;SDS011;9728;48.194;16.346;2022-07-25T00:16:46;2.40;;;2.17;;
19191;SDS011;9728;48.194;16.346;2022-07-25T00:21:50;3.17;;;2.80;;
19191;SDS011;9728;48.194;16.346;2022-07-25T00:26:53;2.90;;;2.60;;
19191;SDS011;9728;48.194;16.346;2022-07-25T00:31:59;2.85;;;2.65;;
19191;SDS011;9728;48.194;16.346;2022-07-25T00:37:02;4.32;;;2.70;;
19191;SDS011;9728;48.194;16.346;2022-07-25T00:42:06;3.30;;;2.75;;
19191;SDS011;9728;48.194;16.346;2022-07-25T00:47:11;2.63;;;2.42;;
19191;SDS011;9728;48.194;16.346;2022-07-25T00:52:14;3.33;;;2.55;;
19191;SDS011;9728;48.194;16.346;2022-07-25T00:57:18;2.63;;;2.25;;
19191;SDS011;9728;48.194;16.346;2022-07-25T01:02:23;3.50;;;2.42;;
19191;SDS011;9728;48.194;16.346;2022-07-25T01:07:27;3.28;;;2.70;;
19191;SDS011;9728;48.194;16.346;2022-07-25T01:12:31;2.70;;;2.40;;
19191;SDS011;9728;48.194;16.346;2022-07-25T01:17:35;2.50;;;2.30;;
19191;SDS011;9728;48.194;16.346;2022-07-25T01:22:40;3.22;;;2.90;;
19191;SDS011;9728;48.194;16.346;2022-07-25T01:27:44;4.95;;;2.70;;
19191;SDS011;9728;48.194;16.346;2022-07-25T01:32:55;2.92;;;2.65;;
19191;SDS011;9728;48.194;16.346;2022-07-25T01:38:00;2.33;;;2.13;;
19191;SDS011;9728;48.194;16.346;2022-07-25T01:43:04;3.88;;;2.70;;
19191;SDS011;9728;48.194;16.346;2022-07-25T01:48:08;3.85;;;2.22;;
19191;SDS011;9728;48.194;16.346;2022-07-25T01:53:13;2.53;;;2.33;;
19191;SDS011;9728;48.194;16.346;2022-07-25T01:58:16;2.35;;;2.10;;
19191;SDS011;9728;48.194;16.346;2022-07-25T02:03:20;2.78;;;2.47;;
19191;SDS011;9728;48.194;16.346;2022-07-25T02:08:34;2.90;;;2.60;;
19191;SDS011;9728;48.194;16.346;2022-07-25T02:13:37;2.47;;;2.05;;
19191;SDS011;9728;48.194;16.346;2022-07-25T02:18:40;2.63;;;2.42;;
19191;SDS011;9728;48.194;16.346;2022-07-25T02:23:45;3.08;;;2.20;;
19191;SDS011;9728;48.194;16.346;2022-07-25T02:28:49;2.92;;;2.70;;
19191;SDS011;9728;48.194;16.346;2022-07-25T02:33:52;2.25;;;2.05;;
19191;SDS011;9728;48.194;16.346;2022-07-25T02:38:57;2.33;;;2.13;;
19191;SDS011;9728;48.194;16.346;2022-07-25T02:44:00;2.90;;;2.10;;
19191;SDS011;9728;48.194;16.346;2022-07-25T02:49:05;2.38;;;2.17;;
19191;SDS011;9728;48.194;16.346;2022-07-25T02:54:09;2.63;;;2.42;;
19191;SDS011;9728;48.194;16.346;2022-07-25T02:59:13;2.45;;;2.25;;
19191;SDS011;9728;48.194;16.346;2022-07-25T03:04:17;2.63;;;2.30;;
19191;SDS011;9728;48.194;16.346;2022-07-25T03:09:21;3.10;;;2.55;;
19191;SDS011;9728;48.194;16.346;2022-07-25T03:14:25;2.63;;;2.35;;
19191;SDS011;9728;48.194;16.346;2022-07-25T03:19:28;2.92;;;2.53;;
19191;SDS011;9728;48.194;16.346;2022-07-25T03:24:33;2.65;;;2.35;;
19191;SDS011;9728;48.194;16.346;2022-07-25T03:29:36;3.00;;;2.70;;
19191;SDS011;9728;48.194;16.346;2022-07-25T03:34:40;3.25;;;2.47;;
19191;SDS011;9728;48.194;16.346;2022-07-25T03:39:45;3.33;;;3.03;;
19191;SDS011;9728;48.194;16.346;2022-07-25T03:44:49;2.53;;;2.30;;
19191;SDS011;9728;48.194;16.346;2022-07-25T03:49:52;3.20;;;2.40;;
19191;SDS011;9728;48.194;16.346;2022-07-25T03:54:57;3.38;;;2.35;;
19191;SDS011;9728;48.194;16.346;2022-07-25T04:00:00;3.20;;;2.90;;
19191;SDS011;9728;48.194;16.346;2022-07-25T04:05:06;3.25;;;2.75;;
19191;SDS011;9728;48.194;16.346;2022-07-25T04:10:12;4.07;;;3.00;;
19191;SDS011;9728;48.194;16.346;2022-07-25T04:15:15;2.92;;;2.53;;
19191;SDS011;9728;48.194;16.346;2022-07-25T04:20:19;4.10;;;2.85;;
19191;SDS011;9728;48.194;16.346;2022-07-25T04:25:24;4.28;;;2.72;;
19191;SDS011;9728;48.194;16.346;2022-07-25T04:30:27;4.35;;;2.80;;
19191;SDS011;9728;48.194;16.346;2022-07-25T04:35:30;3.00;;;2.70;;
19191;SDS011;9728;48.194;16.346;2022-07-25T04:40:35;4.70;;;2.97;;
19191;SDS011;9728;48.194;16.346;2022-07-25T04:45:39;4.05;;;2.80;;
19191;SDS011;9728;48.194;16.346;2022-07-25T04:50:43;4.28;;;2.78;;
19191;SDS011;9728;48.194;16.346;2022-07-25T04:55:48;5.97;;;2.88;;
19191;SDS011;9728;48.194;16.346;2022-07-25T05:00:51;6.05;;;2.95;;
19191;SDS011;9728;48.194;16.346;2022-07-25T05:05:55;5.45;;;3.40;;
19191;SDS011;9728;48.194;16.346;2022-07-25T05:11:00;3.70;;;3.03;;
19191;SDS011;9728;48.194;16.346;2022-07-25T05:16:03;3.80;;;2.88;;
19191;SDS011;9728;48.194;16.346;2022-07-25T05:21:08;3.22;;;2.72;;
19191;SDS011;9728;48.194;16.346;2022-07-25T05:26:14;4.60;;;3.45;;
19191;SDS011;9728;48.194;16.346;2022-07-25T05:31:17;4.40;;;3.13;;
19191;SDS011;9728;48.194;16.346;2022-07-25T05:36:20;4.72;;;3.13;;
19191;SDS011;9728;48.194;16.346;2022-07-25T05:41:25;4.28;;;2.88;;
19191;SDS011;9728;48.194;16.346;2022-07-25T05:46:30;3.15;;;2.85;;
19191;SDS011;9728;48.194;16.346;2022-07-25T05:51:34;4.28;;;3.28;;
19191;SDS011;9728;48.194;16.346;2022-07-25T05:56:39;3.88;;;3.00;;
19191;SDS011;9728;48.194;16.346;2022-07-25T06:01:42;3.72;;;3.35;;
19191;SDS011;9728;48.194;16.346;2022-07-25T06:06:46;3.30;;;2.67;;
19191;SDS011;9728;48.194;16.346;2022-07-25T06:11:53;2.90;;;2.60;;
19191;SDS011;9728;48.194;16.346;2022-07-25T06:17:01;3.20;;;2.58;;
19191;SDS011;9728;48.194;16.346;2022-07-25T06:22:04;4.10;;;2.45;;
19191;SDS011;9728;48.194;16.346;2022-07-25T06:27:11;2.85;;;2.53;;
19191;SDS011;9728;48.194;16.346;2022-07-25T06:32:20;3.83;;;2.80;;
19191;SDS011;9728;48.194;16.346;2022-07-25T06:37:24;3.45;;;2.88;;
19191;SDS011;9728;48.194;16.346;2022-07-25T06:42:29;3.97;;;3.53;;
19191;SDS011;9728;48.194;16.346;2022-07-25T06:47:33;3.40;;;3.00;;
19191;SDS011;9728;48.194;16.346;2022-07-25T06:52:37;3.58;;;3.20;;
19191;SDS011;9728;48.194;16.346;2022-07-25T06:57:42;2.95;;;2.65;;
19191;SDS011;9728;48.194;16.346;2022-07-25T07:02:46;4.53;;;3.20;;
19191;SDS011;9728;48.194;16.346;2022-07-25T07:07:54;4.35;;;2.80;;
19191;SDS011;9728;48.194;16.346;2022-07-25T07:13:02;3.40;;;2.92;;
19191;SDS011;9728;48.194;16.346;2022-07-25T07:18:08;3.92;;;2.83;;
19191;SDS011;9728;48.194;16.346;2022-07-25T07:23:11;4.55;;;2.95;;
19191;SDS011;9728;48.194;16.346;2022-07-25T07:28:19;4.70;;;3.70;;
19191;SDS011;9728;48.194;16.346;2022-07-25T07:33:23;3.42;;;2.03;;
19191;SDS011;9728;48.194;16.346;2022-07-25T07:38:26;5.05;;;2.60;;
19191;SDS011;9728;48.194;16.346;2022-07-25T07:43:31;3.90;;;2.75;;
19191;SDS011;9728;48.194;16.346;2022-07-25T07:48:34;5.90;;;3.60;;
19191;SDS011;9728;48.194;16.346;2022-07-25T07:53:37;3.78;;;2.47;;
19191;SDS011;9728;48.194;16.346;2022-07-25T07:59:00;4.18;;;2.53;;
19191;SDS011;9728;48.194;16.346;2022-07-25T08:04:04;2.55;;;1.75;;
19191;SDS011;9728;48.194;16.346;2022-07-25T08:09:08;1.42;;;1.33;;
19191;SDS011;9728;48.194;16.346;2022-07-25T08:14:13;1.60;;;1.50;;
19191;SDS011;9728;48.194;16.346;2022-07-25T08:19:16;1.73;;;1.63;;
19191;SDS011;9728;48.194;16.346;2022-07-25T08:24:20;2.53;;;1.60;;
19191;SDS011;9728;48.194;16.346;2022-07-25T08:29:25;1.55;;;1.45;;
19191;SDS011;9728;48.194;16.346;2022-07-25T08:34:28;2.08;;;1.55;;
19191;SDS011;9728;48.194;16.346;2022-07-25T08:39:32;2.47;;;2.03;;
19191;SDS011;9728;48.194;16.346;2022-07-25T08:44:37;2.10;;;1.85;;
19191;SDS011;9728;48.194;16.346;2022-07-25T08:49:44;2.05;;;1.80;;
19191;SDS011;9728;48.194;16.346;2022-07-25T08:54:48;2.10;;;1.42;;
19191;SDS011;9728;48.194;16.346;2022-07-25T08:59:53;2.30;;;2.00;;
19191;SDS011;9728;48.194;16.346;2022-07-25T09:04:59;2.10;;;1.40;;
19191;SDS011;9728;48.194;16.346;2022-07-25T09:10:11;2.22;;;1.98;;
19191;SDS011;9728;48.194;16.346;2022-07-25T09:15:22;2.40;;;1.70;;
19191;SDS011;9728;48.194;16.346;2022-07-25T09:20:36;1.83;;;1.73;;
19191;SDS011;9728;48.194;16.346;2022-07-25T09:25:41;1.63;;;1.40;;
19191;SDS011;9728;48.194;16.346;2022-07-25T09:30:56;2.92;;;1.75;;
19191;SDS011;9728;48.194;16.346;2022-07-25T09:36:08;3.00;;;1.98;;
19191;SDS011;9728;48.194;16.346;2022-07-25T09:41:12;2.00;;;1.90;;
19191;SDS011;9728;48.194;16.346;2022-07-25T09:46:17;2.45;;;2.25;;
19191;SDS011;9728;48.194;16.346;2022-07-25T09:51:32;2.08;;;1.90;;
19191;SDS011;9728;48.194;16.346;2022-07-25T09:56:35;2.35;;;2.15;;
19191;SDS011;9728;48.194;16.346;2022-07-25T10:01:44;2.65;;;2.28;;
19191;SDS011;9728;48.194;16.346;2022-07-25T10:06:55;2.65;;;2.30;;
19191;SDS011;9728;48.194;16.346;2022-07-25T10:12:05;3.50;;;2.97;;
19191;SDS011;9728;48.194;16.346;2022-07-25T10:17:19;2.58;;;2.38;;
19191;SDS011;9728;48.194;16.346;2022-07-25T10:22:34;2.67;;;2.47;;
19191;SDS011;9728;48.194;16.346;2022-07-25T10:27:58;2.80;;;2.60;;
19191;SDS011;9728;48.194;16.346;2022-07-25T10:33:11;3.60;;;2.50;;
19191;SDS011;9728;48.194;16.346;2022-07-25T10:38:22;3.30;;;2.80;;
19191;SDS011;9728;48.194;16.346;2022-07-25T10:43:26;2.83;;;2.47;;
19191;SDS011;9728;48.194;16.346;2022-07-25T10:48:31;3.28;;;2.58;;
19191;SDS011;9728;48.194;16.346;2022-07-25T10:53:35;2.90;;;2.70;;
19191;SDS011;9728;48.194;16.346;2022-07-25T10:58:44;2.67;;;2.47;;
19191;SDS011;9728;48.194;16.346;2022-07-25T11:03:54;2.53;;;2.33;;
19191;SDS011;9728;48.194;16.346;2022-07-25T11:08:59;2.90;;;2.70;;
19191;SDS011;9728;48.194;16.346;2022-07-25T11:14:03;2.65;;;2.40;;
19191;SDS011;9728;48.194;16.346;2022-07-25T11:19:15;2.63;;;2.42;;
19191;SDS011;9728;48.194;16.346;2022-07-25T11:24:20;2.83;;;2.55;;
19191;SDS011;9728;48.194;16.346;2022-07-25T11:29:24;2.70;;;2.50;;
19191;SDS011;9728;48.194;16.346;2022-07-25T11:34:30;3.75;;;2.45;;
19191;SDS011;9728;48.194;16.346;2022-07-25T11:39:38;2.78;;;2.58;;
19191;SDS011;9728;48.194;16.346;2022-07-25T11:44:44;2.83;;;2.25;;
19191;SDS011;9728;48.194;16.346;2022-07-25T11:49:50;2.05;;;1.95;;
19191;SDS011;9728;48.194;16.346;2022-07-25T11:54:56;2.63;;;2.42;;
19191;SDS011;9728;48.194;16.346;2022-07-25T12:00:03;2.60;;;2.40;;
19191;SDS011;9728;48.194;16.346;2022-07-25T12:05:11;3.33;;;2.60;;
19191;SDS011;9728;48.194;16.346;2022-07-25T12:10:17;2.75;;;2.22;;
19191;SDS011;9728;48.194;16.346;2022-07-25T12:15:23;2.50;;;2.30;;
19191;SDS011;9728;48.194;16.346;2022-07-25T12:20:30;2.63;;;2.30;;
19191;SDS011;9728;48.194;16.346;2022-07-25T12:25:35;2.50;;;2.28;;
19191;SDS011;9728;48.194;16.346;2022-07-25T12:30:40;2.47;;;2.20;;
19191;SDS011;9728;48.194;16.346;2022-07-25T12:35:47;2.67;;;2.47;;
19191;SDS011;9728;48.194;16.346;2022-07-25T12:40:50;2.22;;;2.05;;
19191;SDS011;9728;48.194;16.346;2022-07-25T12:45:54;3.20;;;2.70;;
19191;SDS011;9728;48.194;16.346;2022-07-25T12:50:59;2.83;;;2.63;;
19191;SDS011;9728;48.194;16.346;2022-07-25T12:56:02;3.08;;;2.72;;
19191;SDS011;9728;48.194;16.346;2022-07-25T13:01:06;2.70;;;2.50;;
19191;SDS011;9728;48.194;16.346;2022-07-25T13:06:11;2.67;;;2.47;;
19191;SDS011;9728;48.194;16.346;2022-07-25T13:11:14;3.28;;;2.97;;
19191;SDS011;9728;48.194;16.346;2022-07-25T13:16:17;3.13;;;2.92;;
19191;SDS011;9728;48.194;16.346;2022-07-25T13:21:22;2.88;;;2.55;;
19191;SDS011;9728;48.194;16.346;2022-07-25T13:26:26;2.67;;;2.47;;
19191;SDS011;9728;48.194;16.346;2022-07-25T13:31:29;2.70;;;2.45;;
19191;SDS011;9728;48.194;16.346;2022-07-25T13:36:35;2.95;;;2.70;;
19191;SDS011;9728;48.194;16.346;2022-07-25T13:41:41;2.97;;;2.67;;
19191;SDS011;9728;48.194;16.346;2022-07-25T13:46:44;2.55;;;2.35;;
19191;SDS011;9728;48.194;16.346;2022-07-25T13:51:51;2.88;;;2.67;;
19191;SDS011;9728;48.194;16.346;2022-07-25T13:56:55;3.03;;;2.83;;
19191;SDS011;9728;48.194;16.346;2022-07-25T14:01:58;2.83;;;2.63;;
19191;SDS011;9728;48.194;16.346;2022-07-25T14:07:04;2.70;;;2.50;;
19191;SDS011;9728;48.194;16.346;2022-07-25T14:12:07;3.70;;;3.00;;
19191;SDS011;9728;48.194;16.346;2022-07-25T14:17:11;3.22;;;2.72;;
19191;SDS011;9728;48.194;16.346;2022-07-25T14:22:16;2.92;;;2.72;;
19191;SDS011;9728;48.194;16.346;2022-07-25T14:27:19;3.10;;;2.88;;
19191;SDS011;9728;48.194;16.346;2022-07-25T14:32:23;5.72;;;3.20;;
19191;SDS011;9728;48.194;16.346;2022-07-25T14:37:27;2.92;;;2.72;;
19191;SDS011;9728;48.194;16.346;2022-07-25T14:42:31;3.35;;;2.92;;
19191;SDS011;9728;48.194;16.346;2022-07-25T14:47:35;3.08;;;2.88;;
19191;SDS011;9728;48.194;16.346;2022-07-25T14:52:40;3.97;;;2.80;;
19191;SDS011;9728;48.194;16.346;2022-07-25T14:57:44;2.97;;;2.63;;
19191;SDS011;9728;48.194;16.346;2022-07-25T15:02:48;2.90;;;2.70;;
19191;SDS011;9728;48.194;16.346;2022-07-25T15:07:52;4.13;;;3.35;;
19191;SDS011;9728;48.194;16.346;2022-07-25T15:12:56;2.92;;;2.70;;
19191;SDS011;9728;48.194;16.346;2022-07-25T15:18:19;2.78;;;2.55;;
19191;SDS011;9728;48.194;16.346;2022-07-25T15:23:24;3.10;;;2.88;;
19191;SDS011;9728;48.194;16.346;2022-07-25T15:28:31;3.10;;;2.90;;
19191;SDS011;9728;48.194;16.346;2022-07-25T15:33:35;3.90;;;3.55;;
19191;SDS011;9728;48.194;16.346;2022-07-25T15:38:40;3.80;;;3.08;;
19191;SDS011;9728;48.194;16.346;2022-07-25T15:43:46;3.25;;;2.95;;
19191;SDS011;9728;48.194;16.346;2022-07-25T15:48:49;3.30;;;3.00;;
19191;SDS011;9728;48.194;16.346;2022-07-25T15:53:54;2.88;;;2.67;;
19191;SDS011;9728;48.194;16.346;2022-07-25T15:58:58;3.38;;;3.08;;
19191;SDS011;9728;48.194;16.346;2022-07-25T16:04:01;3.38;;;3.08;;
19191;SDS011;9728;48.194;16.346;2022-07-25T16:09:06;3.10;;;2.80;;
19191;SDS011;9728;48.194;16.346;2022-07-25T16:14:13;3.35;;;3.10;;
19191;SDS011;9728;48.194;16.346;2022-07-25T16:19:17;4.90;;;3.03;;
19191;SDS011;9728;48.194;16.346;2022-07-25T16:24:22;4.18;;;3.78;;
19191;SDS011;9728;48.194;16.346;2022-07-25T16:29:25;4.15;;;3.70;;
19191;SDS011;9728;48.194;16.346;2022-07-25T16:34:28;3.28;;;2.97;;
19191;SDS011;9728;48.194;16.346;2022-07-25T16:39:33;4.40;;;2.78;;
19191;SDS011;9728;48.194;16.346;2022-07-25T16:44:37;3.40;;;3.10;;
19191;SDS011;9728;48.194;16.346;2022-07-25T16:49:40;3.72;;;3.42;;
19191;SDS011;9728;48.194;16.346;2022-07-25T16:54:45;5.10;;;3.72;;
19191;SDS011;9728;48.194;16.346;2022-07-25T16:59:48;3.53;;;3.22;;
19191;SDS011;9728;48.194;16.346;2022-07-25T17:04:54;3.45;;;3.15;;
19191;SDS011;9728;48.194;16.346;2022-07-25T17:09:58;3.75;;;3.38;;
19191;SDS011;9728;48.194;16.346;2022-07-25T17:15:02;3.78;;;3.30;;
19191;SDS011;9728;48.194;16.346;2022-07-25T17:20:07;3.40;;;3.10;;
19191;SDS011;9728;48.194;16.346;2022-07-25T17:25:12;3.35;;;3.08;;
19191;SDS011;9728;48.194;16.346;2022-07-25T17:30:15;3.83;;;3.53;;
19191;SDS011;9728;48.194;16.346;2022-07-25T17:35:19;3.65;;;3.35;;
19191;SDS011;9728;48.194;16.346;2022-07-25T17:40:24;3.83;;;3.45;;
19191;SDS011;9728;48.194;16.346;2022-07-25T17:45:27;3.90;;;3.60;;
19191;SDS011;9728;48.194;16.346;2022-07-25T17:50:31;3.92;;;3.63;;
19191;SDS011;9728;48.194;16.346;2022-07-25T17:55:36;4.00;;;3.58;;
19191;SDS011;9728;48.194;16.346;2022-07-25T18:00:39;4.60;;;3.72;;
19191;SDS011;9728;48.194;16.346;2022-07-25T18:05:43;4.18;;;3.78;;
19191;SDS011;9728;48.194;16.346;2022-07-25T18:10:48;4.20;;;3.80;;
19191;SDS011;9728;48.194;16.346;2022-07-25T18:15:51;4.43;;;3.70;;
19191;SDS011;9728;48.194;16.346;2022-07-25T18:20:54;3.63;;;3.33;;
19191;SDS011;9728;48.194;16.346;2022-07-25T18:25:59;3.67;;;3.33;;
19191;SDS011;9728;48.194;16.346;2022-07-25T18:31:02;5.18;;;3.95;;
19191;SDS011;9728;48.194;16.346;2022-07-25T18:36:06;4.28;;;3.88;;
19191;SDS011;9728;48.194;16.346;2022-07-25T18:41:11;4.60;;;4.20;;
19191;SDS011;9728;48.194;16.346;2022-07-25T18:46:31;4.55;;;4.10;;
19191;SDS011;9728;48.194;16.346;2022-07-25T18:51:34;4.10;;;3.70;;
19191;SDS011;9728;48.194;16.346;2022-07-25T18:56:39;4.22;;;3.88;;
19191;SDS011;9728;48.194;16.346;2022-07-25T19:01:44;4.07;;;3.70;;
19191;SDS011;9728;48.194;16.346;2022-07-25T19:06:47;3.83;;;3.45;;
19191;SDS011;9728;48.194;16.346;2022-07-25T19:11:52;4.45;;;3.80;;
19191;SDS011;9728;48.194;16.346;2022-07-25T19:16:57;4.75;;;3.67;;
19191;SDS011;9728;48.194;16.346;2022-07-25T19:22:01;3.90;;;3.60;;
19191;SDS011;9728;48.194;16.346;2022-07-25T19:27:06;3.95;;;3.65;;
19191;SDS011;9728;48.194;16.346;2022-07-25T19:32:11;3.83;;;3.28;;
19191;SDS011;9728;48.194;16.346;2022-07-25T19:37:18;3.88;;;3.58;;
19191;SDS011;9728;48.194;16.346;2022-07-25T19:42:23;3.72;;;3.42;;
19191;SDS011;9728;48.194;16.346;2022-07-25T19:47:26;5.67;;;5.17;;
19191;SDS011;9728;48.194;16.346;2022-07-25T19:52:30;3.95;;;3.55;;
19191;SDS011;9728;48.194;16.346;2022-07-25T19:57:35;4.22;;;3.83;;
19191;SDS011;9728;48.194;16.346;2022-07-25T20:02:38;5.05;;;3.33;;
19191;SDS011;9728;48.194;16.346;2022-07-25T20:07:43;5.32;;;3.67;;
19191;SDS011;9728;48.194;16.346;2022-07-25T20:12:48;4.60;;;3.70;;
19191;SDS011;9728;48.194;16.346;2022-07-25T20:17:52;4.00;;;3.60;;
19191;SDS011;9728;48.194;16.346;2022-07-25T20:22:57;4.10;;;3.67;;
19191;SDS011;9728;48.194;16.346;2022-07-25T20:28:02;3.53;;;3.22;;
19191;SDS011;9728;48.194;16.346;2022-07-25T20:33:06;4.15;;;3.75;;
19191;SDS011;9728;48.194;16.346;2022-07-25T20:38:10;4.03;;;3.63;;
19191;SDS011;9728;48.194;16.346;2022-07-25T20:43:15;4.28;;;3.88;;
19191;SDS011;9728;48.194;16.346;2022-07-25T20:48:19;4.65;;;4.18;;
19191;SDS011;9728;48.194;16.346;2022-07-25T20:53:22;4.38;;;3.97;;
19191;SDS011;9728;48.194;16.346;2022-07-25T20:58:28;4.30;;;3.90;;
19191;SDS011;9728;48.194;16.346;2022-07-25T21:03:33;4.43;;;4.03;;
19191;SDS011;9728;48.194;16.346;2022-07-25T21:08:36;4.28;;;3.88;;
19191;SDS011;9728;48.194;16.346;2022-07-25T21:13:41;6.25;;;4.07;;
19191;SDS011;9728;48.194;16.346;2022-07-25T21:18:45;4.65;;;3.70;;
19191;SDS011;9728;48.194;16.346;2022-07-25T21:23:48;6.00;;;4.28;;
19191;SDS011;9728;48.194;16.346;2022-07-25T21:28:53;4.57;;;4.18;;
19191;SDS011;9728;48.194;16.346;2022-07-25T21:33:57;4.85;;;4.35;;
19191;SDS011;9728;48.194;16.346;2022-07-25T21:39:01;4.50;;;3.97;;
19191;SDS011;9728;48.194;16.346;2022-07-25T21:44:06;4.40;;;4.00;;
19191;SDS011;9728;48.194;16.346;2022-07-25T21:49:10;4.82;;;4.43;;
19191;SDS011;9728;48.194;16.346;2022-07-25T21:54:42;4.65;;;4.13;;
19191;SDS011;9728;48.194;16.346;2022-07-25T21:59:47;4.78;;;4.28;;
19191;SDS011;9728;48.194;16.346;2022-07-25T22:04:50;4.45;;;4.05;;
19191;SDS011;9728;48.194;16.346;2022-07-25T22:09:54;4.55;;;4.10;;
19191;SDS011;9728;48.194;16.346;2022-07-25T22:14:59;4.50;;;4.10;;
19191;SDS011;9728;48.194;16.346;2022-07-25T22:20:03;4.55;;;4.15;;
19191;SDS011;9728;48.194;16.346;2022-07-25T22:25:08;5.32;;;4.40;;
19191;SDS011;9728;48.194;16.346;2022-07-25T22:30:13;5.18;;;4.38;;
19191;SDS011;9728;48.194;16.346;2022-07-25T22:35:20;4.53;;;4.13;;
19191;SDS011;9728;48.194;16.346;2022-07-25T22:40:23;4.38;;;3.97;;
19191;SDS011;9728;48.194;16.346;2022-07-25T22:45:28;4.90;;;4.45;;
19191;SDS011;9728;48.194;16.346;2022-07-25T22:50:31;4.82;;;4.43;;
19191;SDS011;9728;48.194;16.346;2022-07-25T22:55:35;4.50;;;4.10;;
19191;SDS011;9728;48.194;16.346;2022-07-25T23:00:40;4.45;;;4.05;;
19191;SDS011;9728;48.194;16.346;2022-07-25T23:05:43;4.97;;;3.92;;
19191;SDS011;9728;48.194;16.346;2022-07-25T23:10:47;5.35;;;4.20;;
19191;SDS011;9728;48.194;16.346;2022-07-25T23:15:52;4.65;;;4.22;;
19191;SDS011;9728;48.194;16.346;2022-07-25T23:20:55;4.68;;;4.10;;
19191;SDS011;9728;48.194;16.346;2022-07-25T23:25:59;4.30;;;3.88;;
19191;SDS011;9728;48.194;16.346;2022-07-25T23:31:04;5.95;;;4.28;;
19191;SDS011;9728;48.194;16.346;2022-07-25T23:36:08;4.35;;;3.95;;
19191;SDS011;9728;48.194;16.346;2022-07-25T23:41:11;5.00;;;4.25;;
19191;SDS011;9728;48.194;16.346;2022-07-25T23:46:16;4.25;;;3.85;;
19191;SDS011;9728;48.194;16.346;2022-07-25T23:51:28;4.85;;;4.40;;
19191;SDS011;9728;48.194;16.346;2022-07-25T23:56:32;4.40;;;3.95;;
